Wet Dream — MHCN9 — position and weather

sailwx.info

Track history (hours):
 
Tides and Currents Weather Stations Pressure Air Temp Water Temp Dewpoint Dewpoint Depression Visibility Wind Speed Wind Dir Waves Ship Positions

Wet Dream

Last reported at 2018-Apr-11 17:22 UTC. Time now 2018-Apr-25 06:58 UTC.
Position N 16°56' W 062°17'.
Warning: this ship's position is 13 days out of date.

Length 12 m.

Type: Sailing vessel. MMSI: 235024071.

Date/timePositionNaut miles runAvg speedWind from/ knotsBaromVisibWave heightAir tempDewpointWater temp
2018-Apr-11 17:22N 16°56' W 062°17'3 7.2
2018-Apr-11 17:00N 16°55' W 062°15'4 7.3
2018-Apr-11 16:30N 16°52' W 062°12'4 7.0
2018-Apr-11 16:00N 16°49' W 062°10'4 7.9
2018-Apr-11 15:30N 16°46' W 062°08'4 7.7
2018-Apr-11 15:00N 16°43' W 062°05'4 7.9
2018-Apr-11 14:30N 16°39' W 062°03'4 8.1
2018-Apr-11 14:00N 16°36' W 062°01'4 8.1
2018-Apr-11 13:30N 16°32' W 061°59'4 8.1
2018-Apr-11 13:00N 16°28' W 061°57'4 6.9
2018-Apr-11 12:29N 16°25' W 061°56'4 7.1
2018-Apr-11 11:59N 16°23' W 061°53'3 7.2
2018-Apr-11 11:30N 16°21' W 061°50'2 0.1
2018-Apr-10 17:13N 16°19' W 061°48'1 4.8
2018-Apr-10 16:59N 16°20' W 061°48'3 6.7
2018-Apr-10 16:30N 16°23' W 061°48'3 7.0
2018-Apr-10 16:00N 16°27' W 061°48'3 6.1
2018-Apr-10 15:29N 16°30' W 061°48'3 6.2
2018-Apr-10 15:00N 16°27' W 061°48'3 6.8
2018-Apr-10 14:30N 16°23' W 061°48'4 6.9
2018-Apr-10 13:57N 16°19' W 061°48'1 0.0
2018-Apr-08 16:10N 16°19' W 061°48'1 4.5
2018-Apr-08 15:54N 16°20' W 061°48'2 4.4
2018-Apr-08 15:30N 16°22' W 061°48'3 6.3
2018-Apr-08 14:58N 16°25' W 061°48'3 7.0
2018-Apr-08 14:30N 16°28' W 061°48'3 6.9
2018-Apr-08 14:00N 16°32' W 061°47'4 7.2
2018-Apr-08 13:30N 16°35' W 061°47'4 7.7
2018-Apr-08 13:00N 16°39' W 061°47'4 7.8
2018-Apr-08 12:30N 16°43' W 061°47'4 7.7
2018-Apr-08 12:00N 16°47' W 061°47'4 7.6
2018-Apr-08 11:30N 16°51' W 061°46'4 7.3
2018-Apr-08 11:00N 16°54' W 061°46'4 7.6
2018-Apr-08 10:30N 16°58' W 061°46'3 5.0
2018-Apr-08 10:00N 17°01' W 061°46'0 0.0
2018-Apr-07 19:53N 17°01' W 061°46'1 0.1
2018-Apr-07 13:51N 17°00' W 061°46'1 0.0
2018-Apr-06 18:20N 17°01' W 061°46'1 2.3
2018-Apr-06 18:00N 16°60' W 061°46'2 3.7
2018-Apr-06 17:29N 17°00' W 061°48'2 3.4
2018-Apr-06 17:00N 17°00' W 061°50'0 0.0
2018-Apr-05 14:55N 17°01' W 061°50'1 2.5
2018-Apr-05 14:29N 16°60' W 061°49'2 4.1
2018-Apr-05 14:00N 16°60' W 061°47'  
2018-Apr-01 18:59N 17°01' W 061°46'  
Track history (hours):
 
Tides and Currents Weather Stations Pressure Air Temp Water Temp Dewpoint Dewpoint Depression Visibility Wind Speed Wind Dir Waves Ship Positions

Wet Dream

Last reported at 2018-Apr-11 17:22 UTC. Time now 2018-Apr-25 06:59 UTC.
Position N 16°56' W 062°17'.
Warning: this ship's position is 13 days out of date.

Length 12 m.

Type: Sailing vessel. MMSI: 235024071.

Date/timePositionNaut miles runAvg speedWind from/ knotsBaromVisibWave heightAir tempDewpointWater temp
2018-Apr-11 17:22N 16°56' W 062°17'3 7.2
2018-Apr-11 17:00N 16°55' W 062°15'4 7.3
2018-Apr-11 16:30N 16°52' W 062°12'4 7.0
2018-Apr-11 16:00N 16°49' W 062°10'4 7.9
2018-Apr-11 15:30N 16°46' W 062°08'4 7.7
2018-Apr-11 15:00N 16°43' W 062°05'4 7.9
2018-Apr-11 14:30N 16°39' W 062°03'4 8.1
2018-Apr-11 14:00N 16°36' W 062°01'4 8.1
2018-Apr-11 13:30N 16°32' W 061°59'4 8.1
2018-Apr-11 13:00N 16°28' W 061°57'4 6.9
2018-Apr-11 12:29N 16°25' W 061°56'4 7.1
2018-Apr-11 11:59N 16°23' W 061°53'3 7.2
2018-Apr-11 11:30N 16°21' W 061°50'2 0.1
2018-Apr-10 17:13N 16°19' W 061°48'1 4.8
2018-Apr-10 16:59N 16°20' W 061°48'3 6.7
2018-Apr-10 16:30N 16°23' W 061°48'3 7.0
2018-Apr-10 16:00N 16°27' W 061°48'3 6.1
2018-Apr-10 15:29N 16°30' W 061°48'3 6.2
2018-Apr-10 15:00N 16°27' W 061°48'3 6.8
2018-Apr-10 14:30N 16°23' W 061°48'4 6.9
2018-Apr-10 13:57N 16°19' W 061°48'1 0.0
2018-Apr-08 16:10N 16°19' W 061°48'1 4.5
2018-Apr-08 15:54N 16°20' W 061°48'2 4.4
2018-Apr-08 15:30N 16°22' W 061°48'3 6.3
2018-Apr-08 14:58N 16°25' W 061°48'3 7.0
2018-Apr-08 14:30N 16°28' W 061°48'3 6.9
2018-Apr-08 14:00N 16°32' W 061°47'4 7.2
2018-Apr-08 13:30N 16°35' W 061°47'4 7.7
2018-Apr-08 13:00N 16°39' W 061°47'4 7.8
2018-Apr-08 12:30N 16°43' W 061°47'4 7.7
2018-Apr-08 12:00N 16°47' W 061°47'4 7.6
2018-Apr-08 11:30N 16°51' W 061°46'4 7.3
2018-Apr-08 11:00N 16°54' W 061°46'4 7.6
2018-Apr-08 10:30N 16°58' W 061°46'3 5.0
2018-Apr-08 10:00N 17°01' W 061°46'0 0.0
2018-Apr-07 19:53N 17°01' W 061°46'1 0.1
2018-Apr-07 13:51N 17°00' W 061°46'1 0.0
2018-Apr-06 18:20N 17°01' W 061°46'1 2.3
2018-Apr-06 18:00N 16°60' W 061°46'2 3.7
2018-Apr-06 17:29N 17°00' W 061°48'2 3.4
2018-Apr-06 17:00N 17°00' W 061°50'0 0.0
2018-Apr-05 14:55N 17°01' W 061°50'1 2.5
2018-Apr-05 14:29N 16°60' W 061°49'2 4.1
2018-Apr-05 14:00N 16°60' W 061°47'  
2018-Apr-01 18:59N 17°01' W 061°46'  

Dump ship's entire track history